Wendy Anne — WDE6314 — position and weather

sailwx.info

Track history (hours):
 
Tides and Currents Weather Stations Pressure Air Temp Water Temp Dewpoint Dewpoint Depression Visibility Wind Speed Wind Dir Waves Ship Positions

Wendy Anne

Owner: Fogg, Matthew J, Beaver Island, MI. More information available from US FCC via Universal Licensing System and Coast Guard Vessel Documentation Center.

Last reported at 2017-Dec-15 02:01 UTC. Time now 2017-Dec-15 12:05 UTC.
Position N 45°15' W 085°11'.

; draft 3.1 m.

Type: Tug. MMSI: 367378670.

Date/timePositionNaut miles runAvg speedWind from/ knotsBaromVisibWave heightAir tempDewpointWater temp
2017-Dec-15 02:01N 45°15' W 085°11'5 4.4
2017-Dec-15 00:51N 45°19' W 085°16'1 2.2
2017-Dec-15 00:30N 45°20' W 085°17'27 4.5
2017-Dec-14 18:30N 45°45' W 085°31'0 0.0
2017-Dec-14 18:00N 45°45' W 085°31'0 0.0
2017-Dec-14 17:30N 45°45' W 085°31'0 0.0
2017-Dec-14 17:00N 45°45' W 085°31'0 0.0
2017-Dec-14 16:31N 45°45' W 085°31'0 0.0
2017-Dec-14 16:00N 45°45' W 085°31'0 0.0
2017-Dec-14 15:00N 45°45' W 085°31'0 0.0
2017-Dec-14 14:30N 45°45' W 085°31'0 0.0
2017-Dec-14 14:01N 45°45' W 085°31'0 0.0
2017-Dec-14 13:30N 45°45' W 085°31'0 0.0
2017-Dec-14 13:00N 45°45' W 085°31'0 0.0
2017-Dec-14 12:30N 45°45' W 085°31'0 0.0
2017-Dec-14 12:00N 45°45' W 085°31'0 0.0
2017-Dec-14 11:30N 45°45' W 085°31'0 0.0
2017-Dec-14 11:00N 45°45' W 085°31'0 0.0
2017-Dec-14 10:30N 45°45' W 085°31'0 0.0
2017-Dec-14 10:00N 45°45' W 085°31'0 0.0
2017-Dec-14 09:30N 45°45' W 085°31'0 0.0
2017-Dec-14 09:00N 45°45' W 085°31'0 0.0
2017-Dec-14 08:30N 45°45' W 085°31'0 0.0
2017-Dec-14 08:00N 45°45' W 085°31'0 0.0
2017-Dec-14 07:30N 45°45' W 085°31'0 0.0
2017-Dec-14 07:00N 45°45' W 085°31'0 0.0
2017-Dec-14 06:30N 45°45' W 085°31'0 0.0
2017-Dec-14 06:00N 45°45' W 085°31'0 0.0
2017-Dec-14 05:30N 45°45' W 085°31'0 0.0
2017-Dec-14 05:00N 45°45' W 085°31'0 0.0
2017-Dec-14 04:30N 45°45' W 085°31'0 0.0
2017-Dec-14 04:00N 45°45' W 085°31'0 0.0
2017-Dec-14 03:30N 45°45' W 085°31'0 0.0
2017-Dec-14 03:00N 45°45' W 085°31'0 0.0
2017-Dec-14 02:30N 45°45' W 085°31'0 0.0
2017-Dec-14 02:00N 45°45' W 085°31'0 0.0
2017-Dec-14 01:30N 45°45' W 085°31'0 0.0
2017-Dec-14 01:00N 45°45' W 085°31'0 0.0
2017-Dec-14 00:30N 45°45' W 085°31'0 0.0
2017-Dec-14 00:00N 45°45' W 085°31'0 0.0
2017-Dec-13 23:30N 45°45' W 085°31'0 0.0
2017-Dec-13 23:00N 45°45' W 085°31'0 0.0
2017-Dec-13 22:30N 45°45' W 085°31'0 0.0
2017-Dec-13 22:01N 45°45' W 085°31'0 0.0
2017-Dec-13 21:30N 45°45' W 085°31'0 0.0
2017-Dec-13 21:00N 45°45' W 085°31'0 0.0
2017-Dec-13 20:30N 45°45' W 085°31'0 0.6
2017-Dec-13 19:57N 45°45' W 085°31'1 2.2
2017-Dec-13 19:30N 45°44' W 085°30'4 7.2
2017-Dec-13 19:00N 45°43' W 085°25'4 7.3
2017-Dec-13 18:30N 45°41' W 085°20'3 6.6
2017-Dec-13 18:00N 45°38' W 085°18'3 6.8
2017-Dec-13 17:30N 45°35' W 085°19'3 6.6
2017-Dec-13 17:00N 45°32' W 085°20'3 6.8
2017-Dec-13 16:30N 45°28' W 085°20'3 7.0
2017-Dec-13 16:01N 45°25' W 085°19'4 7.3
2017-Dec-13 15:30N 45°21' W 085°17'3 5.7
2017-Dec-13 15:00N 45°19' W 085°15'3 5.7
2017-Dec-13 14:30N 45°17' W 085°12'2 3.6
2017-Dec-13 13:58N 45°15' W 085°11'0 0.0
2017-Dec-13 13:22N 45°15' W 085°11'0 0.0
2017-Dec-13 12:58N 45°15' W 085°11'0 0.0
2017-Dec-13 12:30N 45°15' W 085°11'0 0.0
2017-Dec-13 12:00N 45°15' W 085°11'0 0.0
2017-Dec-13 11:30N 45°15' W 085°11'0 0.0
2017-Dec-13 11:00N 45°15' W 085°11'0 0.0
2017-Dec-13 10:30N 45°15' W 085°11'0 0.0
2017-Dec-13 10:00N 45°15' W 085°11'0 0.0
2017-Dec-13 09:30N 45°15' W 085°11'0 0.0
2017-Dec-13 09:00N 45°15' W 085°11'0 0.0
2017-Dec-13 08:31N 45°15' W 085°11'0 0.0
2017-Dec-13 08:00N 45°15' W 085°11'0 0.0
2017-Dec-13 07:30N 45°15' W 085°11'0 0.0
2017-Dec-13 07:00N 45°15' W 085°11'0 0.0
2017-Dec-13 06:30N 45°15' W 085°11'0 0.0
2017-Dec-13 05:57N 45°15' W 085°11'0 0.0
2017-Dec-13 05:29N 45°15' W 085°11'0 0.0
2017-Dec-13 05:00N 45°15' W 085°11'0 0.0
2017-Dec-13 04:29N 45°15' W 085°11'0 0.0
2017-Dec-13 04:00N 45°15' W 085°11'0 0.0
2017-Dec-13 03:25N 45°15' W 085°11'0 0.0
2017-Dec-13 02:59N 45°15' W 085°11'0 0.0
2017-Dec-13 02:30N 45°15' W 085°11'0 0.0
2017-Dec-13 02:00N 45°15' W 085°11'0 0.0
2017-Dec-13 01:27N 45°15' W 085°11'0 0.0
2017-Dec-13 01:00N 45°15' W 085°11'0 0.0
2017-Dec-13 00:30N 45°15' W 085°11'0 0.0
2017-Dec-13 00:01N 45°15' W 085°11'0 0.0
2017-Dec-12 23:31N 45°15' W 085°11'0 0.0
2017-Dec-12 23:00N 45°15' W 085°11'0 0.0
2017-Dec-12 22:31N 45°15' W 085°11'0 0.0
2017-Dec-12 22:00N 45°15' W 085°11'0 0.0
2017-Dec-12 21:30N 45°15' W 085°11'0 0.0
2017-Dec-12 21:00N 45°15' W 085°11'0 0.0
2017-Dec-12 20:30N 45°15' W 085°11'0 0.0
2017-Dec-12 20:00N 45°15' W 085°11'0 0.0
2017-Dec-12 19:30N 45°15' W 085°11'0 0.0
2017-Dec-12 19:00N 45°15' W 085°11'0 0.0
2017-Dec-12 18:30N 45°15' W 085°11'0 0.0
2017-Dec-12 18:00N 45°15' W 085°11'0 0.0
2017-Dec-12 17:30N 45°15' W 085°11'0 0.0
2017-Dec-12 17:00N 45°15' W 085°11'0 0.0
2017-Dec-12 16:30N 45°15' W 085°11'0 0.0
2017-Dec-12 16:00N 45°15' W 085°11'0 0.0
2017-Dec-12 15:30N 45°15' W 085°11'0 0.0
2017-Dec-12 15:00N 45°15' W 085°11'0 0.0
2017-Dec-12 14:30N 45°15' W 085°11'0 0.0
2017-Dec-12 14:01N 45°15' W 085°11'0 0.0
2017-Dec-12 13:30N 45°15' W 085°11'0 0.0
2017-Dec-12 13:00N 45°15' W 085°11'0 0.0
2017-Dec-12 12:30N 45°15' W 085°11'0 0.0
2017-Dec-12 12:01N 45°15' W 085°11'0 0.0
2017-Dec-12 11:30N 45°15' W 085°11'0 0.0
2017-Dec-12 11:00N 45°15' W 085°11'0 0.0
2017-Dec-12 10:31N 45°15' W 085°11'0 0.0
2017-Dec-12 10:00N 45°15' W 085°11'0 0.0
2017-Dec-12 09:30N 45°15' W 085°11'0 0.0
2017-Dec-12 09:00N 45°15' W 085°11'0 0.0
2017-Dec-12 08:30N 45°15' W 085°11'0 0.0
2017-Dec-12 08:00N 45°15' W 085°11'0 0.0
2017-Dec-12 07:31N 45°15' W 085°11'0 0.0
2017-Dec-12 06:59N 45°15' W 085°11'0 0.0
2017-Dec-12 06:29N 45°15' W 085°11'0 0.0
2017-Dec-12 05:58N 45°15' W 085°11'0 0.0
2017-Dec-12 05:30N 45°15' W 085°11'0 0.0
2017-Dec-12 05:00N 45°15' W 085°11'0 0.0
2017-Dec-12 04:30N 45°15' W 085°11'0 0.0
2017-Dec-12 04:00N 45°15' W 085°11'0 0.0
2017-Dec-12 03:27N 45°15' W 085°11'0 0.0
2017-Dec-12 02:59N 45°15' W 085°11'0 0.0
2017-Dec-12 02:29N 45°15' W 085°11'0 0.0
2017-Dec-12 01:58N 45°15' W 085°11'0 0.0
2017-Dec-12 01:29N 45°15' W 085°11'0 0.0
2017-Dec-12 01:00N 45°15' W 085°11'0 0.0
2017-Dec-12 00:23N 45°15' W 085°11'0 0.0
2017-Dec-12 00:00N 45°15' W 085°11'0 0.0
2017-Dec-11 23:30N 45°15' W 085°11'0 0.0
2017-Dec-11 22:58N 45°15' W 085°11'0 0.0
2017-Dec-11 22:30N 45°15' W 085°11'0 0.0
2017-Dec-11 22:00N 45°15' W 085°11'0 0.0
2017-Dec-11 21:30N 45°15' W 085°11'0 0.0
2017-Dec-11 21:00N 45°15' W 085°11'0 0.0
2017-Dec-11 20:30N 45°15' W 085°11'0 0.0
2017-Dec-11 19:59N 45°15' W 085°11'0 0.0
2017-Dec-11 19:25N 45°15' W 085°11'0 0.0
2017-Dec-11 18:49N 45°15' W 085°11'0 0.0
2017-Dec-11 18:30N 45°15' W 085°11'0 0.0
2017-Dec-11 17:58N 45°15' W 085°11'0 0.0
2017-Dec-11 17:30N 45°15' W 085°11'0 0.0
2017-Dec-11 10:17N 45°15' W 085°11'0 0.0
2017-Dec-11 09:59N 45°15' W 085°11'0 0.0
2017-Dec-11 08:36N 45°15' W 085°11'0 0.0
2017-Dec-11 08:22N 45°15' W 085°11'0 0.0
2017-Dec-11 06:50N 45°15' W 085°11'0 0.0
2017-Dec-11 06:13N 45°15' W 085°11'0 0.0
2017-Dec-11 05:49N 45°15' W 085°11'0 0.0
2017-Dec-11 05:13N 45°15' W 085°11'0 0.0
2017-Dec-11 04:59N 45°15' W 085°11'0 0.0
2017-Dec-11 04:30N 45°15' W 085°11'0 0.0
2017-Dec-11 03:57N 45°15' W 085°11'0 0.0
2017-Dec-11 03:27N 45°15' W 085°11'0 0.0
2017-Dec-11 02:33N 45°15' W 085°11'0 0.0
2017-Dec-11 02:18N 45°15' W 085°11'0 0.0
2017-Dec-11 01:50N 45°15' W 085°11'0 0.0
2017-Dec-11 01:22N 45°15' W 085°11'0 0.0
2017-Dec-11 00:55N 45°15' W 085°11'0 0.0
2017-Dec-11 00:30N 45°15' W 085°11'0 0.0
2017-Dec-11 00:00N 45°15' W 085°11'0 0.0
2017-Dec-10 23:29N 45°15' W 085°11'0 0.0
2017-Dec-10 23:00N 45°15' W 085°11'0 0.0
2017-Dec-10 22:02N 45°15' W 085°11'0 0.0
2017-Dec-10 21:43N 45°15' W 085°11'0 0.0
2017-Dec-10 21:30N 45°15' W 085°11'0 0.0
2017-Dec-10 20:46N 45°15' W 085°11'0 0.0
2017-Dec-10 20:28N 45°15' W 085°11'0 0.0
2017-Dec-10 19:12N 45°15' W 085°11'0 0.0
2017-Dec-10 18:58N 45°15' W 085°11'0 0.0
2017-Dec-10 07:33N 45°15' W 085°11'0 0.0
2017-Dec-10 07:05N 45°15' W 085°11'0 0.0
2017-Dec-10 06:56N 45°15' W 085°11'0 0.0
2017-Dec-10 06:28N 45°15' W 085°11'0 0.0
2017-Dec-10 06:00N 45°15' W 085°11'0 0.0
2017-Dec-10 05:30N 45°15' W 085°11'0 0.0
2017-Dec-10 05:00N 45°15' W 085°11'0 0.0
2017-Dec-10 04:29N 45°15' W 085°11'0 0.0
2017-Dec-10 03:59N 45°15' W 085°11'0 0.0
2017-Dec-10 03:30N 45°15' W 085°11'0 0.0
2017-Dec-10 03:00N 45°15' W 085°11'0 0.0
2017-Dec-10 02:30N 45°15' W 085°11'0 0.0
2017-Dec-10 01:59N 45°15' W 085°11'0 0.0
2017-Dec-10 01:28N 45°15' W 085°11'0 0.0
2017-Dec-10 00:56N 45°15' W 085°11'0 0.0
2017-Dec-10 00:30N 45°15' W 085°11'0 0.0
2017-Dec-09 23:59N 45°15' W 085°11'0 0.0
2017-Dec-09 23:24N 45°15' W 085°11'0 0.0
2017-Dec-09 23:00N 45°15' W 085°11'0 0.0
2017-Dec-09 20:45N 45°15' W 085°11'0 0.0
2017-Dec-09 20:25N 45°15' W 085°11'0 0.0
2017-Dec-09 19:52N 45°15' W 085°11'0 0.0
2017-Dec-08 14:07N 45°15' W 085°11'0 0.0
2017-Dec-08 14:01N 45°15' W 085°11'0 0.0
2017-Dec-08 13:31N 45°15' W 085°11'0 0.0
2017-Dec-08 13:00N 45°15' W 085°11'0 0.0
2017-Dec-08 12:31N 45°15' W 085°11'0 0.0
2017-Dec-08 12:01N 45°15' W 085°11'0 0.0
2017-Dec-08 11:31N 45°15' W 085°11'0 0.0
2017-Dec-08 11:00N 45°15' W 085°11'0 0.0
2017-Dec-08 10:31N 45°15' W 085°11'0 0.0
2017-Dec-08 10:01N 45°15' W 085°11'0 0.0
2017-Dec-08 09:31N 45°15' W 085°11'0 0.0
2017-Dec-08 09:01N 45°15' W 085°11'0 0.0
2017-Dec-08 08:31N 45°15' W 085°11'0 0.0
2017-Dec-08 08:01N 45°15' W 085°11'0 0.0
2017-Dec-08 07:30N 45°15' W 085°11'0 0.0
2017-Dec-08 07:01N 45°15' W 085°11'0 0.0
2017-Dec-08 06:31N 45°15' W 085°11'0 0.0
2017-Dec-08 06:01N 45°15' W 085°11'0 0.0
2017-Dec-08 05:31N 45°15' W 085°11'0 0.0
2017-Dec-08 05:01N 45°15' W 085°11'0 0.0
2017-Dec-08 04:31N 45°15' W 085°11'0 0.0
2017-Dec-08 04:00N 45°15' W 085°11'0 0.0
2017-Dec-08 03:31N 45°15' W 085°11'0 0.0
2017-Dec-08 03:01N 45°15' W 085°11'0 0.0
2017-Dec-08 02:31N 45°15' W 085°11'0 0.0
2017-Dec-08 02:01N 45°15' W 085°11'0 0.0
2017-Dec-08 01:31N 45°15' W 085°11'0 0.0
2017-Dec-08 01:01N 45°15' W 085°11'0 0.0
2017-Dec-08 00:30N 45°15' W 085°11'0 0.0
2017-Dec-08 00:01N 45°15' W 085°11'0 0.0
2017-Dec-07 23:31N 45°15' W 085°11'0 0.0
2017-Dec-07 23:00N 45°15' W 085°11'0 0.0
2017-Dec-07 22:31N 45°15' W 085°11'0 0.0
2017-Dec-07 22:01N 45°15' W 085°11'0 0.0
2017-Dec-07 21:30N 45°15' W 085°11'0 0.0
2017-Dec-07 21:00N 45°15' W 085°11'0 0.0
2017-Dec-07 20:31N 45°15' W 085°11'0 0.0
2017-Dec-07 20:01N 45°15' W 085°11'0 0.0
2017-Dec-07 19:30N 45°15' W 085°11'0 0.0
2017-Dec-07 19:01N 45°15' W 085°11'0 0.0
2017-Dec-07 18:30N 45°15' W 085°11'0 0.0
2017-Dec-07 18:00N 45°15' W 085°11'0 0.0
2017-Dec-07 17:31N 45°15' W 085°11'0 0.0
2017-Dec-07 17:01N 45°15' W 085°11'0 0.0
2017-Dec-07 16:31N 45°15' W 085°11'0 0.0
2017-Dec-07 16:01N 45°15' W 085°11'0 0.0
2017-Dec-07 15:31N 45°15' W 085°11'0 0.0
2017-Dec-07 15:01N 45°15' W 085°11'0 0.0
2017-Dec-07 14:30N 45°15' W 085°11'0 0.0
2017-Dec-07 14:00N 45°15' W 085°11'0 0.0
2017-Dec-07 13:30N 45°15' W 085°11'0 0.0
2017-Dec-07 13:01N 45°15' W 085°11'0 0.0
2017-Dec-07 12:31N 45°15' W 085°11'0 0.0
2017-Dec-07 12:01N 45°15' W 085°11'0 0.0
2017-Dec-07 11:31N 45°15' W 085°11'0 0.0
2017-Dec-07 11:00N 45°15' W 085°11'0 0.0
2017-Dec-07 10:31N 45°15' W 085°11'0 0.0
2017-Dec-07 10:01N 45°15' W 085°11'0 0.0
2017-Dec-07 09:30N 45°15' W 085°11'0 0.0
2017-Dec-07 09:01N 45°15' W 085°11'0 0.0
2017-Dec-07 08:31N 45°15' W 085°11'0 0.0
2017-Dec-07 08:00N 45°15' W 085°11'0 0.0
2017-Dec-07 07:31N 45°15' W 085°11'0 0.0
2017-Dec-07 07:01N 45°15' W 085°11'0 0.0
2017-Dec-07 06:30N 45°15' W 085°11'0 0.0
2017-Dec-07 06:00N 45°15' W 085°11'0 0.0
2017-Dec-07 05:31N 45°15' W 085°11'0 0.0
2017-Dec-07 05:01N 45°15' W 085°11'0 0.0
2017-Dec-07 04:30N 45°15' W 085°11'0 0.0
2017-Dec-07 04:01N 45°15' W 085°11'0 0.0
2017-Dec-07 03:30N 45°15' W 085°11'0 0.0
2017-Dec-07 03:00N 45°15' W 085°11'0 0.0
2017-Dec-07 02:31N 45°15' W 085°11'0 0.0
2017-Dec-07 02:00N 45°15' W 085°11'0 0.0
2017-Dec-07 01:31N 45°15' W 085°11'0 0.0
2017-Dec-07 01:01N 45°15' W 085°11'0 0.0
2017-Dec-07 00:30N 45°15' W 085°11'0 0.0
2017-Dec-07 00:00N 45°15' W 085°11'0 0.0
2017-Dec-06 23:31N 45°15' W 085°11'0 0.0
2017-Dec-06 23:01N 45°15' W 085°11'0 0.0
2017-Dec-06 22:30N 45°15' W 085°11'0 0.0
2017-Dec-06 22:01N 45°15' W 085°11'0 0.0
2017-Dec-06 21:31N 45°15' W 085°11'0 0.0
2017-Dec-06 21:01N 45°15' W 085°11'  
Track history (hours):
 
Tides and Currents Weather Stations Pressure Air Temp Water Temp Dewpoint Dewpoint Depression Visibility Wind Speed Wind Dir Waves Ship Positions

Wendy Anne

Owner: Fogg, Matthew J, Beaver Island, MI. More information available from US FCC via Universal Licensing System and Coast Guard Vessel Documentation Center.

Last reported at 2017-Dec-15 02:01 UTC. Time now 2017-Dec-15 12:05 UTC.
Position N 45°15' W 085°11'.

; draft 3.1 m.

Type: Tug. MMSI: 367378670.

Date/timePositionNaut miles runAvg speedWind from/ knotsBaromVisibWave heightAir tempDewpointWater temp
2017-Dec-15 02:01N 45°15' W 085°11'5 4.4
2017-Dec-15 00:51N 45°19' W 085°16'1 2.2
2017-Dec-15 00:30N 45°20' W 085°17'27 4.5
2017-Dec-14 18:30N 45°45' W 085°31'0 0.0
2017-Dec-14 18:00N 45°45' W 085°31'0 0.0
2017-Dec-14 17:30N 45°45' W 085°31'0 0.0
2017-Dec-14 17:00N 45°45' W 085°31'0 0.0
2017-Dec-14 16:31N 45°45' W 085°31'0 0.0
2017-Dec-14 16:00N 45°45' W 085°31'0 0.0
2017-Dec-14 15:00N 45°45' W 085°31'0 0.0
2017-Dec-14 14:30N 45°45' W 085°31'0 0.0
2017-Dec-14 14:01N 45°45' W 085°31'0 0.0
2017-Dec-14 13:30N 45°45' W 085°31'0 0.0
2017-Dec-14 13:00N 45°45' W 085°31'0 0.0
2017-Dec-14 12:30N 45°45' W 085°31'0 0.0
2017-Dec-14 12:00N 45°45' W 085°31'0 0.0
2017-Dec-14 11:30N 45°45' W 085°31'0 0.0
2017-Dec-14 11:00N 45°45' W 085°31'0 0.0
2017-Dec-14 10:30N 45°45' W 085°31'0 0.0
2017-Dec-14 10:00N 45°45' W 085°31'0 0.0
2017-Dec-14 09:30N 45°45' W 085°31'0 0.0
2017-Dec-14 09:00N 45°45' W 085°31'0 0.0
2017-Dec-14 08:30N 45°45' W 085°31'0 0.0
2017-Dec-14 08:00N 45°45' W 085°31'0 0.0
2017-Dec-14 07:30N 45°45' W 085°31'0 0.0
2017-Dec-14 07:00N 45°45' W 085°31'0 0.0
2017-Dec-14 06:30N 45°45' W 085°31'0 0.0
2017-Dec-14 06:00N 45°45' W 085°31'0 0.0
2017-Dec-14 05:30N 45°45' W 085°31'0 0.0
2017-Dec-14 05:00N 45°45' W 085°31'0 0.0
2017-Dec-14 04:30N 45°45' W 085°31'0 0.0
2017-Dec-14 04:00N 45°45' W 085°31'0 0.0
2017-Dec-14 03:30N 45°45' W 085°31'0 0.0
2017-Dec-14 03:00N 45°45' W 085°31'0 0.0
2017-Dec-14 02:30N 45°45' W 085°31'0 0.0
2017-Dec-14 02:00N 45°45' W 085°31'0 0.0
2017-Dec-14 01:30N 45°45' W 085°31'0 0.0
2017-Dec-14 01:00N 45°45' W 085°31'0 0.0
2017-Dec-14 00:30N 45°45' W 085°31'0 0.0
2017-Dec-14 00:00N 45°45' W 085°31'0 0.0
2017-Dec-13 23:30N 45°45' W 085°31'0 0.0
2017-Dec-13 23:00N 45°45' W 085°31'0 0.0
2017-Dec-13 22:30N 45°45' W 085°31'0 0.0
2017-Dec-13 22:01N 45°45' W 085°31'0 0.0
2017-Dec-13 21:30N 45°45' W 085°31'0 0.0
2017-Dec-13 21:00N 45°45' W 085°31'0 0.0
2017-Dec-13 20:30N 45°45' W 085°31'0 0.6
2017-Dec-13 19:57N 45°45' W 085°31'1 2.2
2017-Dec-13 19:30N 45°44' W 085°30'4 7.2
2017-Dec-13 19:00N 45°43' W 085°25'4 7.3
2017-Dec-13 18:30N 45°41' W 085°20'3 6.6
2017-Dec-13 18:00N 45°38' W 085°18'3 6.8
2017-Dec-13 17:30N 45°35' W 085°19'3 6.6
2017-Dec-13 17:00N 45°32' W 085°20'3 6.8
2017-Dec-13 16:30N 45°28' W 085°20'3 7.0
2017-Dec-13 16:01N 45°25' W 085°19'4 7.3
2017-Dec-13 15:30N 45°21' W 085°17'3 5.7
2017-Dec-13 15:00N 45°19' W 085°15'3 5.7
2017-Dec-13 14:30N 45°17' W 085°12'2 3.6
2017-Dec-13 13:58N 45°15' W 085°11'0 0.0
2017-Dec-13 13:22N 45°15' W 085°11'0 0.0
2017-Dec-13 12:58N 45°15' W 085°11'0 0.0
2017-Dec-13 12:30N 45°15' W 085°11'0 0.0
2017-Dec-13 12:00N 45°15' W 085°11'0 0.0
2017-Dec-13 11:30N 45°15' W 085°11'0 0.0
2017-Dec-13 11:00N 45°15' W 085°11'0 0.0
2017-Dec-13 10:30N 45°15' W 085°11'0 0.0
2017-Dec-13 10:00N 45°15' W 085°11'0 0.0
2017-Dec-13 09:30N 45°15' W 085°11'0 0.0
2017-Dec-13 09:00N 45°15' W 085°11'0 0.0
2017-Dec-13 08:31N 45°15' W 085°11'0 0.0
2017-Dec-13 08:00N 45°15' W 085°11'0 0.0
2017-Dec-13 07:30N 45°15' W 085°11'0 0.0
2017-Dec-13 07:00N 45°15' W 085°11'0 0.0
2017-Dec-13 06:30N 45°15' W 085°11'0 0.0
2017-Dec-13 05:57N 45°15' W 085°11'0 0.0
2017-Dec-13 05:29N 45°15' W 085°11'0 0.0
2017-Dec-13 05:00N 45°15' W 085°11'0 0.0
2017-Dec-13 04:29N 45°15' W 085°11'0 0.0
2017-Dec-13 04:00N 45°15' W 085°11'0 0.0
2017-Dec-13 03:25N 45°15' W 085°11'0 0.0
2017-Dec-13 02:59N 45°15' W 085°11'0 0.0
2017-Dec-13 02:30N 45°15' W 085°11'0 0.0
2017-Dec-13 02:00N 45°15' W 085°11'0 0.0
2017-Dec-13 01:27N 45°15' W 085°11'0 0.0
2017-Dec-13 01:00N 45°15' W 085°11'0 0.0
2017-Dec-13 00:30N 45°15' W 085°11'0 0.0
2017-Dec-13 00:01N 45°15' W 085°11'0 0.0
2017-Dec-12 23:31N 45°15' W 085°11'0 0.0
2017-Dec-12 23:00N 45°15' W 085°11'0 0.0
2017-Dec-12 22:31N 45°15' W 085°11'0 0.0
2017-Dec-12 22:00N 45°15' W 085°11'0 0.0
2017-Dec-12 21:30N 45°15' W 085°11'0 0.0
2017-Dec-12 21:00N 45°15' W 085°11'0 0.0
2017-Dec-12 20:30N 45°15' W 085°11'0 0.0
2017-Dec-12 20:00N 45°15' W 085°11'0 0.0
2017-Dec-12 19:30N 45°15' W 085°11'0 0.0
2017-Dec-12 19:00N 45°15' W 085°11'0 0.0
2017-Dec-12 18:30N 45°15' W 085°11'0 0.0
2017-Dec-12 18:00N 45°15' W 085°11'0 0.0
2017-Dec-12 17:30N 45°15' W 085°11'0 0.0
2017-Dec-12 17:00N 45°15' W 085°11'0 0.0
2017-Dec-12 16:30N 45°15' W 085°11'0 0.0
2017-Dec-12 16:00N 45°15' W 085°11'0 0.0
2017-Dec-12 15:30N 45°15' W 085°11'0 0.0
2017-Dec-12 15:00N 45°15' W 085°11'0 0.0
2017-Dec-12 14:30N 45°15' W 085°11'0 0.0
2017-Dec-12 14:01N 45°15' W 085°11'0 0.0
2017-Dec-12 13:30N 45°15' W 085°11'0 0.0
2017-Dec-12 13:00N 45°15' W 085°11'0 0.0
2017-Dec-12 12:30N 45°15' W 085°11'0 0.0
2017-Dec-12 12:01N 45°15' W 085°11'0 0.0
2017-Dec-12 11:30N 45°15' W 085°11'0 0.0
2017-Dec-12 11:00N 45°15' W 085°11'0 0.0
2017-Dec-12 10:31N 45°15' W 085°11'0 0.0
2017-Dec-12 10:00N 45°15' W 085°11'0 0.0
2017-Dec-12 09:30N 45°15' W 085°11'0 0.0
2017-Dec-12 09:00N 45°15' W 085°11'0 0.0
2017-Dec-12 08:30N 45°15' W 085°11'0 0.0
2017-Dec-12 08:00N 45°15' W 085°11'0 0.0
2017-Dec-12 07:31N 45°15' W 085°11'0 0.0
2017-Dec-12 06:59N 45°15' W 085°11'0 0.0
2017-Dec-12 06:29N 45°15' W 085°11'0 0.0
2017-Dec-12 05:58N 45°15' W 085°11'0 0.0
2017-Dec-12 05:30N 45°15' W 085°11'0 0.0
2017-Dec-12 05:00N 45°15' W 085°11'0 0.0
2017-Dec-12 04:30N 45°15' W 085°11'0 0.0
2017-Dec-12 04:00N 45°15' W 085°11'0 0.0
2017-Dec-12 03:27N 45°15' W 085°11'0 0.0
2017-Dec-12 02:59N 45°15' W 085°11'0 0.0
2017-Dec-12 02:29N 45°15' W 085°11'0 0.0
2017-Dec-12 01:58N 45°15' W 085°11'0 0.0
2017-Dec-12 01:29N 45°15' W 085°11'0 0.0
2017-Dec-12 01:00N 45°15' W 085°11'0 0.0
2017-Dec-12 00:23N 45°15' W 085°11'0 0.0
2017-Dec-12 00:00N 45°15' W 085°11'0 0.0
2017-Dec-11 23:30N 45°15' W 085°11'0 0.0
2017-Dec-11 22:58N 45°15' W 085°11'0 0.0
2017-Dec-11 22:30N 45°15' W 085°11'0 0.0
2017-Dec-11 22:00N 45°15' W 085°11'0 0.0
2017-Dec-11 21:30N 45°15' W 085°11'0 0.0
2017-Dec-11 21:00N 45°15' W 085°11'0 0.0
2017-Dec-11 20:30N 45°15' W 085°11'0 0.0
2017-Dec-11 19:59N 45°15' W 085°11'0 0.0
2017-Dec-11 19:25N 45°15' W 085°11'0 0.0
2017-Dec-11 18:49N 45°15' W 085°11'0 0.0
2017-Dec-11 18:30N 45°15' W 085°11'0 0.0
2017-Dec-11 17:58N 45°15' W 085°11'0 0.0
2017-Dec-11 17:30N 45°15' W 085°11'0 0.0
2017-Dec-11 10:17N 45°15' W 085°11'0 0.0
2017-Dec-11 09:59N 45°15' W 085°11'0 0.0
2017-Dec-11 08:36N 45°15' W 085°11'0 0.0
2017-Dec-11 08:22N 45°15' W 085°11'0 0.0
2017-Dec-11 06:50N 45°15' W 085°11'0 0.0
2017-Dec-11 06:13N 45°15' W 085°11'0 0.0
2017-Dec-11 05:49N 45°15' W 085°11'0 0.0
2017-Dec-11 05:13N 45°15' W 085°11'0 0.0
2017-Dec-11 04:59N 45°15' W 085°11'0 0.0
2017-Dec-11 04:30N 45°15' W 085°11'0 0.0
2017-Dec-11 03:57N 45°15' W 085°11'0 0.0
2017-Dec-11 03:27N 45°15' W 085°11'0 0.0
2017-Dec-11 02:33N 45°15' W 085°11'0 0.0
2017-Dec-11 02:18N 45°15' W 085°11'0 0.0
2017-Dec-11 01:50N 45°15' W 085°11'0 0.0
2017-Dec-11 01:22N 45°15' W 085°11'0 0.0
2017-Dec-11 00:55N 45°15' W 085°11'0 0.0
2017-Dec-11 00:30N 45°15' W 085°11'0 0.0
2017-Dec-11 00:00N 45°15' W 085°11'0 0.0
2017-Dec-10 23:29N 45°15' W 085°11'0 0.0
2017-Dec-10 23:00N 45°15' W 085°11'0 0.0
2017-Dec-10 22:02N 45°15' W 085°11'0 0.0
2017-Dec-10 21:43N 45°15' W 085°11'0 0.0
2017-Dec-10 21:30N 45°15' W 085°11'0 0.0
2017-Dec-10 20:46N 45°15' W 085°11'0 0.0
2017-Dec-10 20:28N 45°15' W 085°11'0 0.0
2017-Dec-10 19:12N 45°15' W 085°11'0 0.0
2017-Dec-10 18:58N 45°15' W 085°11'0 0.0
2017-Dec-10 07:33N 45°15' W 085°11'0 0.0
2017-Dec-10 07:05N 45°15' W 085°11'0 0.0
2017-Dec-10 06:56N 45°15' W 085°11'0 0.0
2017-Dec-10 06:28N 45°15' W 085°11'0 0.0
2017-Dec-10 06:00N 45°15' W 085°11'0 0.0
2017-Dec-10 05:30N 45°15' W 085°11'0 0.0
2017-Dec-10 05:00N 45°15' W 085°11'0 0.0
2017-Dec-10 04:29N 45°15' W 085°11'0 0.0
2017-Dec-10 03:59N 45°15' W 085°11'0 0.0
2017-Dec-10 03:30N 45°15' W 085°11'0 0.0
2017-Dec-10 03:00N 45°15' W 085°11'0 0.0
2017-Dec-10 02:30N 45°15' W 085°11'0 0.0
2017-Dec-10 01:59N 45°15' W 085°11'0 0.0
2017-Dec-10 01:28N 45°15' W 085°11'0 0.0
2017-Dec-10 00:56N 45°15' W 085°11'0 0.0
2017-Dec-10 00:30N 45°15' W 085°11'0 0.0
2017-Dec-09 23:59N 45°15' W 085°11'0 0.0
2017-Dec-09 23:24N 45°15' W 085°11'0 0.0
2017-Dec-09 23:00N 45°15' W 085°11'0 0.0
2017-Dec-09 20:45N 45°15' W 085°11'0 0.0
2017-Dec-09 20:25N 45°15' W 085°11'0 0.0
2017-Dec-09 19:52N 45°15' W 085°11'0 0.0
2017-Dec-08 14:07N 45°15' W 085°11'0 0.0
2017-Dec-08 14:01N 45°15' W 085°11'0 0.0
2017-Dec-08 13:31N 45°15' W 085°11'0 0.0
2017-Dec-08 13:00N 45°15' W 085°11'0 0.0
2017-Dec-08 12:31N 45°15' W 085°11'0 0.0
2017-Dec-08 12:01N 45°15' W 085°11'0 0.0
2017-Dec-08 11:31N 45°15' W 085°11'0 0.0
2017-Dec-08 11:00N 45°15' W 085°11'0 0.0
2017-Dec-08 10:31N 45°15' W 085°11'0 0.0
2017-Dec-08 10:01N 45°15' W 085°11'0 0.0
2017-Dec-08 09:31N 45°15' W 085°11'0 0.0
2017-Dec-08 09:01N 45°15' W 085°11'0 0.0
2017-Dec-08 08:31N 45°15' W 085°11'0 0.0
2017-Dec-08 08:01N 45°15' W 085°11'0 0.0
2017-Dec-08 07:30N 45°15' W 085°11'0 0.0
2017-Dec-08 07:01N 45°15' W 085°11'0 0.0
2017-Dec-08 06:31N 45°15' W 085°11'0 0.0
2017-Dec-08 06:01N 45°15' W 085°11'0 0.0
2017-Dec-08 05:31N 45°15' W 085°11'0 0.0
2017-Dec-08 05:01N 45°15' W 085°11'0 0.0
2017-Dec-08 04:31N 45°15' W 085°11'0 0.0
2017-Dec-08 04:00N 45°15' W 085°11'0 0.0
2017-Dec-08 03:31N 45°15' W 085°11'0 0.0
2017-Dec-08 03:01N 45°15' W 085°11'0 0.0
2017-Dec-08 02:31N 45°15' W 085°11'0 0.0
2017-Dec-08 02:01N 45°15' W 085°11'0 0.0
2017-Dec-08 01:31N 45°15' W 085°11'0 0.0
2017-Dec-08 01:01N 45°15' W 085°11'0 0.0
2017-Dec-08 00:30N 45°15' W 085°11'0 0.0
2017-Dec-08 00:01N 45°15' W 085°11'0 0.0
2017-Dec-07 23:31N 45°15' W 085°11'0 0.0
2017-Dec-07 23:00N 45°15' W 085°11'0 0.0
2017-Dec-07 22:31N 45°15' W 085°11'0 0.0
2017-Dec-07 22:01N 45°15' W 085°11'0 0.0
2017-Dec-07 21:30N 45°15' W 085°11'0 0.0
2017-Dec-07 21:00N 45°15' W 085°11'0 0.0
2017-Dec-07 20:31N 45°15' W 085°11'0 0.0
2017-Dec-07 20:01N 45°15' W 085°11'0 0.0
2017-Dec-07 19:30N 45°15' W 085°11'0 0.0
2017-Dec-07 19:01N 45°15' W 085°11'0 0.0
2017-Dec-07 18:30N 45°15' W 085°11'0 0.0
2017-Dec-07 18:00N 45°15' W 085°11'0 0.0
2017-Dec-07 17:31N 45°15' W 085°11'0 0.0
2017-Dec-07 17:01N 45°15' W 085°11'0 0.0
2017-Dec-07 16:31N 45°15' W 085°11'0 0.0
2017-Dec-07 16:01N 45°15' W 085°11'0 0.0
2017-Dec-07 15:31N 45°15' W 085°11'0 0.0
2017-Dec-07 15:01N 45°15' W 085°11'0 0.0
2017-Dec-07 14:30N 45°15' W 085°11'0 0.0
2017-Dec-07 14:00N 45°15' W 085°11'0 0.0
2017-Dec-07 13:30N 45°15' W 085°11'0 0.0
2017-Dec-07 13:01N 45°15' W 085°11'0 0.0
2017-Dec-07 12:31N 45°15' W 085°11'0 0.0
2017-Dec-07 12:01N 45°15' W 085°11'0 0.0
2017-Dec-07 11:31N 45°15' W 085°11'0 0.0
2017-Dec-07 11:00N 45°15' W 085°11'0 0.0
2017-Dec-07 10:31N 45°15' W 085°11'0 0.0
2017-Dec-07 10:01N 45°15' W 085°11'0 0.0
2017-Dec-07 09:30N 45°15' W 085°11'0 0.0
2017-Dec-07 09:01N 45°15' W 085°11'0 0.0
2017-Dec-07 08:31N 45°15' W 085°11'0 0.0
2017-Dec-07 08:00N 45°15' W 085°11'0 0.0
2017-Dec-07 07:31N 45°15' W 085°11'0 0.0
2017-Dec-07 07:01N 45°15' W 085°11'0 0.0
2017-Dec-07 06:30N 45°15' W 085°11'0 0.0
2017-Dec-07 06:00N 45°15' W 085°11'0 0.0
2017-Dec-07 05:31N 45°15' W 085°11'0 0.0
2017-Dec-07 05:01N 45°15' W 085°11'0 0.0
2017-Dec-07 04:30N 45°15' W 085°11'0 0.0
2017-Dec-07 04:01N 45°15' W 085°11'0 0.0
2017-Dec-07 03:30N 45°15' W 085°11'0 0.0
2017-Dec-07 03:00N 45°15' W 085°11'0 0.0
2017-Dec-07 02:31N 45°15' W 085°11'0 0.0
2017-Dec-07 02:00N 45°15' W 085°11'0 0.0
2017-Dec-07 01:31N 45°15' W 085°11'0 0.0
2017-Dec-07 01:01N 45°15' W 085°11'0 0.0
2017-Dec-07 00:30N 45°15' W 085°11'0 0.0
2017-Dec-07 00:00N 45°15' W 085°11'0 0.0
2017-Dec-06 23:31N 45°15' W 085°11'0 0.0
2017-Dec-06 23:01N 45°15' W 085°11'0 0.0
2017-Dec-06 22:30N 45°15' W 085°11'0 0.0
2017-Dec-06 22:01N 45°15' W 085°11'0 0.0
2017-Dec-06 21:31N 45°15' W 085°11'0 0.0
2017-Dec-06 21:01N 45°15' W 085°11'  

Dump ship's entire track history